sensor_id;sensor_type;location;lat;lon;timestamp;pressure;altitude;pressure_sealevel;temperature
68939;BMP180;59064;45.294;11.816;2023-03-24T00:01:00;101321.80;;;10.40
68939;BMP180;59064;45.294;11.816;2023-03-24T00:03:28;101325.80;;;10.40
68939;BMP180;59064;45.294;11.816;2023-03-24T00:05:59;101329.20;;;10.40
68939;BMP180;59064;45.294;11.816;2023-03-24T00:08:35;101328.60;;;10.38
68939;BMP180;59064;45.294;11.816;2023-03-24T00:11:06;101321.40;;;10.30
68939;BMP180;59064;45.294;11.816;2023-03-24T00:13:34;101329.40;;;10.30
68939;BMP180;59064;45.294;11.816;2023-03-24T00:16:09;101327.80;;;10.30
68939;BMP180;59064;45.294;11.816;2023-03-24T00:18:37;101330.20;;;10.30
68939;BMP180;59064;45.294;11.816;2023-03-24T00:21:05;101331.80;;;10.34
68939;BMP180;59064;45.294;11.816;2023-03-24T00:23:32;101333.60;;;10.40
68939;BMP180;59064;45.294;11.816;2023-03-24T00:26:10;101325.40;;;10.30
68939;BMP180;59064;45.294;11.816;2023-03-24T00:28:42;101328.00;;;10.30
68939;BMP180;59064;45.294;11.816;2023-03-24T00:31:08;101328.80;;;10.30
68939;BMP180;59064;45.294;11.816;2023-03-24T00:33:35;101322.40;;;10.34
68939;BMP180;59064;45.294;11.816;2023-03-24T00:36:04;101312.60;;;10.40
68939;BMP180;59064;45.294;11.816;2023-03-24T00:38:33;101308.00;;;10.40
68939;BMP180;59064;45.294;11.816;2023-03-24T00:41:00;101306.40;;;10.40
68939;BMP180;59064;45.294;11.816;2023-03-24T00:43:28;101298.80;;;10.40
68939;BMP180;59064;45.294;11.816;2023-03-24T00:45:59;101289.80;;;10.40
68939;BMP180;59064;45.294;11.816;2023-03-24T00:48:28;101290.20;;;10.40
68939;BMP180;59064;45.294;11.816;2023-03-24T00:50:54;101291.60;;;10.38
68939;BMP180;59064;45.294;11.816;2023-03-24T00:53:21;101294.00;;;10.30
68939;BMP180;59064;45.294;11.816;2023-03-24T00:55:50;101288.00;;;10.30
68939;BMP180;59064;45.294;11.816;2023-03-24T00:58:17;101292.20;;;10.30
68939;BMP180;59064;45.294;11.816;2023-03-24T01:00:53;101302.20;;;10.30
68939;BMP180;59064;45.294;11.816;2023-03-24T01:03:23;101299.20;;;10.30
68939;BMP180;59064;45.294;11.816;2023-03-24T01:05:54;101291.40;;;10.22
68939;BMP180;59064;45.294;11.816;2023-03-24T01:08:23;101300.20;;;10.20
68939;BMP180;59064;45.294;11.816;2023-03-24T01:10:51;101299.00;;;10.20
68939;BMP180;59064;45.294;11.816;2023-03-24T01:13:24;101286.60;;;10.20
68939;BMP180;59064;45.294;11.816;2023-03-24T01:15:51;101292.40;;;10.20
68939;BMP180;59064;45.294;11.816;2023-03-24T01:18:17;101288.80;;;10.16
68939;BMP180;59064;45.294;11.816;2023-03-24T01:20:45;101289.40;;;10.10
68939;BMP180;59064;45.294;11.816;2023-03-24T01:23:18;101287.80;;;10.10
68939;BMP180;59064;45.294;11.816;2023-03-24T01:25:45;101287.40;;;10.10
68939;BMP180;59064;45.294;11.816;2023-03-24T01:28:21;101285.00;;;10.10
68939;BMP180;59064;45.294;11.816;2023-03-24T01:30:50;101279.40;;;10.10
68939;BMP180;59064;45.294;11.816;2023-03-24T01:33:17;101276.60;;;10.10
68939;BMP180;59064;45.294;11.816;2023-03-24T01:35:43;101283.00;;;10.10
68939;BMP180;59064;45.294;11.816;2023-03-24T01:38:11;101283.40;;;10.00
68939;BMP180;59064;45.294;11.816;2023-03-24T01:40:42;101285.00;;;9.98
68939;BMP180;59064;45.294;11.816;2023-03-24T01:43:24;101280.60;;;9.90
68939;BMP180;59064;45.294;11.816;2023-03-24T01:46:16;101273.80;;;9.90
68939;BMP180;59064;45.294;11.816;2023-03-24T01:49:01;101273.40;;;9.90
68939;BMP180;59064;45.294;11.816;2023-03-24T01:51:37;101279.60;;;9.90
68939;BMP180;59064;45.294;11.816;2023-03-24T01:56:52;101284.40;;;9.94
68939;BMP180;59064;45.294;11.816;2023-03-24T01:59:26;101289.00;;;10.00
68939;BMP180;59064;45.294;11.816;2023-03-24T02:01:59;101286.60;;;10.00
68939;BMP180;59064;45.294;11.816;2023-03-24T02:04:42;101278.20;;;10.00
68939;BMP180;59064;45.294;11.816;2023-03-24T02:07:24;101278.40;;;10.10
68939;BMP180;59064;45.294;11.816;2023-03-24T02:09:52;101280.20;;;10.10
68939;BMP180;59064;45.294;11.816;2023-03-24T02:12:18;101276.80;;;10.12
68939;BMP180;59064;45.294;11.816;2023-03-24T02:14:44;101275.60;;;10.20
68939;BMP180;59064;45.294;11.816;2023-03-24T02:17:33;101270.20;;;10.20
68939;BMP180;59064;45.294;11.816;2023-03-24T02:26:38;101257.20;;;10.22
68939;BMP180;59064;45.294;11.816;2023-03-24T02:46:42;101260.00;;;10.10
68939;BMP180;59064;45.294;11.816;2023-03-24T02:54:48;101237.80;;;9.60
68939;BMP180;59064;45.294;11.816;2023-03-24T02:57:42;101239.00;;;9.60
68939;BMP180;59064;45.294;11.816;2023-03-24T03:02:47;101234.00;;;9.50
68939;BMP180;59064;45.294;11.816;2023-03-24T03:05:30;101232.60;;;9.50
68939;BMP180;59064;45.294;11.816;2023-03-24T03:08:01;101238.40;;;9.50
68939;BMP180;59064;45.294;11.816;2023-03-24T03:10:33;101233.00;;;9.50
68939;BMP180;59064;45.294;11.816;2023-03-24T03:13:06;101242.20;;;9.40
68939;BMP180;59064;45.294;11.816;2023-03-24T03:15:40;101246.20;;;9.30
68939;BMP180;59064;45.294;11.816;2023-03-24T03:18:28;101248.80;;;9.30
68939;BMP180;59064;45.294;11.816;2023-03-24T03:21:07;101246.40;;;9.30
68939;BMP180;59064;45.294;11.816;2023-03-24T03:23:41;101244.60;;;9.20
68939;BMP180;59064;45.294;11.816;2023-03-24T03:26:13;101243.80;;;9.20
68939;BMP180;59064;45.294;11.816;2023-03-24T03:28:43;101242.80;;;9.10
68939;BMP180;59064;45.294;11.816;2023-03-24T03:31:20;101247.60;;;9.10
68939;BMP180;59064;45.294;11.816;2023-03-24T03:37:12;101249.40;;;9.00
68939;BMP180;59064;45.294;11.816;2023-03-24T03:39:49;101250.20;;;8.90
68939;BMP180;59064;45.294;11.816;2023-03-24T03:42:17;101252.80;;;8.84
68939;BMP180;59064;45.294;11.816;2023-03-24T03:44:44;101250.00;;;8.80
68939;BMP180;59064;45.294;11.816;2023-03-24T03:47:11;101245.80;;;8.70
68939;BMP180;59064;45.294;11.816;2023-03-24T03:49:38;101244.20;;;8.70
68939;BMP180;59064;45.294;11.816;2023-03-24T03:52:04;101236.40;;;8.70
68939;BMP180;59064;45.294;11.816;2023-03-24T03:54:30;101242.40;;;8.70
68939;BMP180;59064;45.294;11.816;2023-03-24T03:56:58;101244.80;;;8.70
68939;BMP180;59064;45.294;11.816;2023-03-24T03:59:35;101244.40;;;8.70
68939;BMP180;59064;45.294;11.816;2023-03-24T04:16:40;101240.00;;;8.70
68939;BMP180;59064;45.294;11.816;2023-03-24T04:23:03;101243.40;;;8.70
68939;BMP180;59064;45.294;11.816;2023-03-24T04:25:50;101237.60;;;8.70
68939;BMP180;59064;45.294;11.816;2023-03-24T04:28:47;101239.60;;;8.70
68939;BMP180;59064;45.294;11.816;2023-03-24T04:31:47;101236.00;;;8.70
68939;BMP180;59064;45.294;11.816;2023-03-24T04:34:27;101231.80;;;8.70
68939;BMP180;59064;45.294;11.816;2023-03-24T04:37:13;101229.00;;;8.70
68939;BMP180;59064;45.294;11.816;2023-03-24T04:39:44;101228.20;;;8.62
68939;BMP180;59064;45.294;11.816;2023-03-24T04:42:21;101233.60;;;8.60
68939;BMP180;59064;45.294;11.816;2023-03-24T04:44:47;101235.00;;;8.50
68939;BMP180;59064;45.294;11.816;2023-03-24T04:47:20;101230.20;;;8.50
68939;BMP180;59064;45.294;11.816;2023-03-24T04:49:47;101231.80;;;8.40
68939;BMP180;59064;45.294;11.816;2023-03-24T04:52:13;101228.20;;;8.40
68939;BMP180;59064;45.294;11.816;2023-03-24T04:54:38;101230.60;;;8.30
68939;BMP180;59064;45.294;11.816;2023-03-24T04:57:04;101227.80;;;8.30
68939;BMP180;59064;45.294;11.816;2023-03-24T04:59:30;101228.00;;;8.30
68939;BMP180;59064;45.294;11.816;2023-03-24T05:02:01;101227.60;;;8.20
68939;BMP180;59064;45.294;11.816;2023-03-24T05:04:28;101236.40;;;8.20
68939;BMP180;59064;45.294;11.816;2023-03-24T05:06:54;101243.20;;;8.20
68939;BMP180;59064;45.294;11.816;2023-03-24T05:09:23;101238.60;;;8.20
68939;BMP180;59064;45.294;11.816;2023-03-24T05:11:50;101242.80;;;8.20
68939;BMP180;59064;45.294;11.816;2023-03-24T05:14:16;101246.40;;;8.12
68939;BMP180;59064;45.294;11.816;2023-03-24T05:16:42;101240.40;;;8.10
68939;BMP180;59064;45.294;11.816;2023-03-24T05:19:10;101236.80;;;8.00
68939;BMP180;59064;45.294;11.816;2023-03-24T05:21:36;101237.60;;;8.00
68939;BMP180;59064;45.294;11.816;2023-03-24T05:24:03;101239.60;;;7.90
68939;BMP180;59064;45.294;11.816;2023-03-24T05:26:29;101246.00;;;7.90
68939;BMP180;59064;45.294;11.816;2023-03-24T05:28:55;101248.80;;;7.86
68939;BMP180;59064;45.294;11.816;2023-03-24T05:31:21;101241.80;;;7.80
68939;BMP180;59064;45.294;11.816;2023-03-24T05:33:47;101239.20;;;7.80
68939;BMP180;59064;45.294;11.816;2023-03-24T05:36:13;101236.20;;;7.80
68939;BMP180;59064;45.294;11.816;2023-03-24T05:38:38;101237.20;;;7.80
68939;BMP180;59064;45.294;11.816;2023-03-24T05:41:05;101241.60;;;7.80
68939;BMP180;59064;45.294;11.816;2023-03-24T05:43:31;101238.40;;;7.80
68939;BMP180;59064;45.294;11.816;2023-03-24T05:45:56;101234.40;;;7.80
68939;BMP180;59064;45.294;11.816;2023-03-24T05:48:25;101227.60;;;7.80
68939;BMP180;59064;45.294;11.816;2023-03-24T05:50:52;101223.60;;;7.80
68939;BMP180;59064;45.294;11.816;2023-03-24T05:53:18;101227.20;;;7.80
68939;BMP180;59064;45.294;11.816;2023-03-24T05:55:46;101236.80;;;7.82
68939;BMP180;59064;45.294;11.816;2023-03-24T05:58:12;101243.40;;;7.90
68939;BMP180;59064;45.294;11.816;2023-03-24T06:00:40;101259.40;;;7.94
68939;BMP180;59064;45.294;11.816;2023-03-24T06:03:05;101263.20;;;8.00
68939;BMP180;59064;45.294;11.816;2023-03-24T06:05:31;101266.20;;;7.94
68939;BMP180;59064;45.294;11.816;2023-03-24T06:07:58;101267.80;;;7.90
68939;BMP180;59064;45.294;11.816;2023-03-24T06:10:26;101264.60;;;8.00
68939;BMP180;59064;45.294;11.816;2023-03-24T06:12:53;101273.80;;;8.08
68939;BMP180;59064;45.294;11.816;2023-03-24T06:15:22;101273.80;;;8.10
68939;BMP180;59064;45.294;11.816;2023-03-24T06:17:49;101276.40;;;8.20
68939;BMP180;59064;45.294;11.816;2023-03-24T06:20:15;101278.80;;;8.30
68939;BMP180;59064;45.294;11.816;2023-03-24T06:22:44;101272.80;;;8.36
68939;BMP180;59064;45.294;11.816;2023-03-24T06:25:14;101270.60;;;8.40
68939;BMP180;59064;45.294;11.816;2023-03-24T06:27:44;101267.80;;;8.42
68939;BMP180;59064;45.294;11.816;2023-03-24T06:30:14;101275.20;;;8.50
68939;BMP180;59064;45.294;11.816;2023-03-24T06:32:41;101279.20;;;8.60
68939;BMP180;59064;45.294;11.816;2023-03-24T06:35:13;101277.80;;;8.70
68939;BMP180;59064;45.294;11.816;2023-03-24T06:37:40;101273.00;;;8.80
68939;BMP180;59064;45.294;11.816;2023-03-24T06:40:08;101270.80;;;8.90
68939;BMP180;59064;45.294;11.816;2023-03-24T06:42:39;101274.40;;;9.00
68939;BMP180;59064;45.294;11.816;2023-03-24T06:45:06;101277.40;;;9.04
68939;BMP180;59064;45.294;11.816;2023-03-24T06:47:32;101278.20;;;9.18
68939;BMP180;59064;45.294;11.816;2023-03-24T06:49:58;101279.20;;;9.28
68939;BMP180;59064;45.294;11.816;2023-03-24T06:52:24;101276.00;;;9.30
68939;BMP180;59064;45.294;11.816;2023-03-24T06:54:52;101280.20;;;9.50
68939;BMP180;59064;45.294;11.816;2023-03-24T06:57:18;101283.40;;;9.64
68939;BMP180;59064;45.294;11.816;2023-03-24T06:59:43;101281.00;;;9.80
68939;BMP180;59064;45.294;11.816;2023-03-24T07:02:10;101278.40;;;9.90
68939;BMP180;59064;45.294;11.816;2023-03-24T07:04:38;101286.20;;;10.00
68939;BMP180;59064;45.294;11.816;2023-03-24T07:07:04;101288.40;;;10.10
68939;BMP180;59064;45.294;11.816;2023-03-24T07:09:30;101291.60;;;10.30
68939;BMP180;59064;45.294;11.816;2023-03-24T07:11:57;101291.00;;;10.50
68939;BMP180;59064;45.294;11.816;2023-03-24T07:14:22;101284.20;;;10.62
68939;BMP180;59064;45.294;11.816;2023-03-24T07:16:51;101287.60;;;10.80
68939;BMP180;59064;45.294;11.816;2023-03-24T07:19:17;101295.60;;;11.02
68939;BMP180;59064;45.294;11.816;2023-03-24T07:21:43;101301.60;;;11.10
68939;BMP180;59064;45.294;11.816;2023-03-24T07:24:15;101304.60;;;11.00
68939;BMP180;59064;45.294;11.816;2023-03-24T07:26:41;101307.20;;;11.00
68939;BMP180;59064;45.294;11.816;2023-03-24T07:29:06;101311.20;;;11.00
68939;BMP180;59064;45.294;11.816;2023-03-24T07:31:32;101306.60;;;11.00
68939;BMP180;59064;45.294;11.816;2023-03-24T07:34:06;101307.00;;;11.00
68939;BMP180;59064;45.294;11.816;2023-03-24T07:36:32;101305.80;;;11.06
68939;BMP180;59064;45.294;11.816;2023-03-24T07:38:58;101304.80;;;11.00
68939;BMP180;59064;45.294;11.816;2023-03-24T07:41:24;101310.20;;;11.00
68939;BMP180;59064;45.294;11.816;2023-03-24T07:43:51;101311.60;;;11.00
68939;BMP180;59064;45.294;11.816;2023-03-24T07:46:16;101313.20;;;10.90
68939;BMP180;59064;45.294;11.816;2023-03-24T07:48:42;101312.20;;;10.90
68939;BMP180;59064;45.294;11.816;2023-03-24T07:51:08;101316.20;;;10.92
68939;BMP180;59064;45.294;11.816;2023-03-24T07:53:34;101321.60;;;10.98
68939;BMP180;59064;45.294;11.816;2023-03-24T07:55:59;101321.60;;;11.00
68939;BMP180;59064;45.294;11.816;2023-03-24T07:58:25;101319.80;;;11.06
68939;BMP180;59064;45.294;11.816;2023-03-24T08:00:51;101317.20;;;11.22
68939;BMP180;59064;45.294;11.816;2023-03-24T08:03:16;101320.40;;;11.36
68939;BMP180;59064;45.294;11.816;2023-03-24T08:05:42;101324.20;;;11.40
68939;BMP180;59064;45.294;11.816;2023-03-24T08:08:08;101326.40;;;11.64
68939;BMP180;59064;45.294;11.816;2023-03-24T08:10:34;101319.20;;;11.90
68939;BMP180;59064;45.294;11.816;2023-03-24T08:13:00;101310.80;;;12.20
68939;BMP180;59064;45.294;11.816;2023-03-24T08:15:27;101308.20;;;12.60
68939;BMP180;59064;45.294;11.816;2023-03-24T08:17:52;101309.40;;;12.96
68939;BMP180;59064;45.294;11.816;2023-03-24T08:20:19;101312.00;;;13.34
68939;BMP180;59064;45.294;11.816;2023-03-24T08:22:47;101311.40;;;13.82
68939;BMP180;59064;45.294;11.816;2023-03-24T08:25:18;101316.20;;;14.26
68939;BMP180;59064;45.294;11.816;2023-03-24T08:27:43;101314.00;;;14.84
68939;BMP180;59064;45.294;11.816;2023-03-24T08:30:13;101313.60;;;15.36
68939;BMP180;59064;45.294;11.816;2023-03-24T08:32:46;101310.80;;;15.74
68939;BMP180;59064;45.294;11.816;2023-03-24T08:35:14;101312.40;;;16.12
68939;BMP180;59064;45.294;11.816;2023-03-24T08:37:41;101312.60;;;16.48
68939;BMP180;59064;45.294;11.816;2023-03-24T08:40:09;101310.60;;;16.80
68939;BMP180;59064;45.294;11.816;2023-03-24T08:42:39;101309.40;;;17.00
68939;BMP180;59064;45.294;11.816;2023-03-24T08:45:07;101310.00;;;17.00
68939;BMP180;59064;45.294;11.816;2023-03-24T08:47:34;101311.80;;;17.30
68939;BMP180;59064;45.294;11.816;2023-03-24T08:50:00;101308.00;;;17.40
68939;BMP180;59064;45.294;11.816;2023-03-24T08:52:25;101307.00;;;17.46
68939;BMP180;59064;45.294;11.816;2023-03-24T08:54:51;101306.20;;;17.62
68939;BMP180;59064;45.294;11.816;2023-03-24T08:57:17;101304.40;;;17.80
68939;BMP180;59064;45.294;11.816;2023-03-24T08:59:42;101307.40;;;17.70
68939;BMP180;59064;45.294;11.816;2023-03-24T09:02:12;101302.60;;;17.60
68939;BMP180;59064;45.294;11.816;2023-03-24T09:04:38;101304.80;;;17.70
68939;BMP180;59064;45.294;11.816;2023-03-24T09:07:04;101303.60;;;17.70
68939;BMP180;59064;45.294;11.816;2023-03-24T09:09:32;101304.40;;;17.80
68939;BMP180;59064;45.294;11.816;2023-03-24T09:11:57;101303.60;;;17.80
68939;BMP180;59064;45.294;11.816;2023-03-24T09:14:23;101311.40;;;17.70
68939;BMP180;59064;45.294;11.816;2023-03-24T09:16:49;101312.00;;;17.60
68939;BMP180;59064;45.294;11.816;2023-03-24T09:19:16;101313.40;;;17.50
68939;BMP180;59064;45.294;11.816;2023-03-24T09:21:45;101312.80;;;17.50
68939;BMP180;59064;45.294;11.816;2023-03-24T09:24:12;101313.80;;;17.48
68939;BMP180;59064;45.294;11.816;2023-03-24T09:26:37;101320.20;;;17.30
68939;BMP180;59064;45.294;11.816;2023-03-24T09:29:03;101311.20;;;17.20
68939;BMP180;59064;45.294;11.816;2023-03-24T09:31:29;101311.00;;;17.22
68939;BMP180;59064;45.294;11.816;2023-03-24T09:33:55;101313.00;;;17.30
68939;BMP180;59064;45.294;11.816;2023-03-24T09:36:21;101316.60;;;17.30
68939;BMP180;59064;45.294;11.816;2023-03-24T09:38:48;101313.60;;;17.46
68939;BMP180;59064;45.294;11.816;2023-03-24T09:41:26;101316.20;;;17.52
68939;BMP180;59064;45.294;11.816;2023-03-24T09:44:08;101317.40;;;17.70
68939;BMP180;59064;45.294;11.816;2023-03-24T09:46:45;101314.80;;;17.50
68939;BMP180;59064;45.294;11.816;2023-03-24T09:49:15;101312.60;;;17.30
68939;BMP180;59064;45.294;11.816;2023-03-24T09:51:44;101313.60;;;17.30
68939;BMP180;59064;45.294;11.816;2023-03-24T09:57:01;101304.40;;;17.50
68939;BMP180;59064;45.294;11.816;2023-03-24T09:59:39;101310.60;;;17.58
68939;BMP180;59064;45.294;11.816;2023-03-24T10:02:14;101309.80;;;17.60
68939;BMP180;59064;45.294;11.816;2023-03-24T10:04:40;101310.20;;;17.60
68939;BMP180;59064;45.294;11.816;2023-03-24T10:09:41;101302.40;;;18.00
68939;BMP180;59064;45.294;11.816;2023-03-24T10:12:36;101306.00;;;18.00
68939;BMP180;59064;45.294;11.816;2023-03-24T10:15:16;101302.40;;;18.00
68939;BMP180;59064;45.294;11.816;2023-03-24T10:28:52;101302.40;;;18.40
68939;BMP180;59064;45.294;11.816;2023-03-24T10:31:28;101307.40;;;18.50
68939;BMP180;59064;45.294;11.816;2023-03-24T10:33:55;101296.80;;;18.60
68939;BMP180;59064;45.294;11.816;2023-03-24T10:36:21;101298.20;;;18.50
68939;BMP180;59064;45.294;11.816;2023-03-24T10:38:48;101304.20;;;18.44
68939;BMP180;59064;45.294;11.816;2023-03-24T10:41:27;101298.00;;;18.70
68939;BMP180;59064;45.294;11.816;2023-03-24T10:43:55;101304.00;;;19.00
68939;BMP180;59064;45.294;11.816;2023-03-24T10:46:23;101307.20;;;19.10
68939;BMP180;59064;45.294;11.816;2023-03-24T10:51:44;101291.40;;;19.00
68939;BMP180;59064;45.294;11.816;2023-03-24T10:54:25;101288.60;;;19.00
68939;BMP180;59064;45.294;11.816;2023-03-24T10:59:35;101283.80;;;19.20
68939;BMP180;59064;45.294;11.816;2023-03-24T11:04:42;101283.60;;;19.24
68939;BMP180;59064;45.294;11.816;2023-03-24T11:09:42;101277.00;;;19.06
68939;BMP180;59064;45.294;11.816;2023-03-24T11:12:26;101275.00;;;19.00
68939;BMP180;59064;45.294;11.816;2023-03-24T11:15:02;101272.80;;;18.80
68939;BMP180;59064;45.294;11.816;2023-03-24T11:17:28;101276.40;;;18.68
68939;BMP180;59064;45.294;11.816;2023-03-24T11:19:55;101279.00;;;18.50
68939;BMP180;59064;45.294;11.816;2023-03-24T11:22:22;101277.40;;;18.50
68939;BMP180;59064;45.294;11.816;2023-03-24T11:24:55;101269.40;;;18.54
68939;BMP180;59064;45.294;11.816;2023-03-24T11:27:21;101266.20;;;18.80
68939;BMP180;59064;45.294;11.816;2023-03-24T11:29:53;101266.40;;;19.00
68939;BMP180;59064;45.294;11.816;2023-03-24T11:32:26;101264.60;;;19.36
68939;BMP180;59064;45.294;11.816;2023-03-24T11:35:07;101263.40;;;19.78
68939;BMP180;59064;45.294;11.816;2023-03-24T11:37:43;101258.40;;;20.14
68939;BMP180;59064;45.294;11.816;2023-03-24T11:40:17;101256.80;;;20.34
68939;BMP180;59064;45.294;11.816;2023-03-24T11:42:57;101250.80;;;20.50
68939;BMP180;59064;45.294;11.816;2023-03-24T11:47:57;101246.80;;;20.80
68939;BMP180;59064;45.294;11.816;2023-03-24T11:50:32;101240.40;;;21.12
68939;BMP180;59064;45.294;11.816;2023-03-24T11:55:41;101238.80;;;21.38
68939;BMP180;59064;45.294;11.816;2023-03-24T12:14:41;101225.40;;;21.42
68939;BMP180;59064;45.294;11.816;2023-03-24T12:28:22;101194.40;;;21.58
68939;BMP180;59064;45.294;11.816;2023-03-24T12:39:31;101176.00;;;22.22
68939;BMP180;59064;45.294;11.816;2023-03-24T12:42:13;101181.80;;;21.84
68939;BMP180;59064;45.294;11.816;2023-03-24T12:44:45;101171.40;;;21.68
68939;BMP180;59064;45.294;11.816;2023-03-24T12:58:20;101154.20;;;23.80
68939;BMP180;59064;45.294;11.816;2023-03-24T13:01:10;101152.40;;;23.84
68939;BMP180;59064;45.294;11.816;2023-03-24T13:03:52;101151.40;;;23.82
68939;BMP180;59064;45.294;11.816;2023-03-24T13:06:28;101146.00;;;23.80
68939;BMP180;59064;45.294;11.816;2023-03-24T13:09:18;101151.40;;;24.10
68939;BMP180;59064;45.294;11.816;2023-03-24T13:11:56;101148.20;;;24.24
68939;BMP180;59064;45.294;11.816;2023-03-24T13:14:28;101149.00;;;24.34
68939;BMP180;59064;45.294;11.816;2023-03-24T13:17:00;101144.00;;;24.04
68939;BMP180;59064;45.294;11.816;2023-03-24T13:19:28;101131.80;;;23.92
68939;BMP180;59064;45.294;11.816;2023-03-24T13:21:55;101137.60;;;24.18
68939;BMP180;59064;45.294;11.816;2023-03-24T13:24:21;101137.00;;;24.30
68939;BMP180;59064;45.294;11.816;2023-03-24T13:34:47;101120.40;;;24.04
68939;BMP180;59064;45.294;11.816;2023-03-24T13:37:22;101113.80;;;24.40
68939;BMP180;59064;45.294;11.816;2023-03-24T13:39:55;101112.60;;;24.92
68939;BMP180;59064;45.294;11.816;2023-03-24T13:42:36;101117.20;;;25.04
68939;BMP180;59064;45.294;11.816;2023-03-24T13:50:59;101099.40;;;25.60
68939;BMP180;59064;45.294;11.816;2023-03-24T13:55:54;101096.20;;;26.10
68939;BMP180;59064;45.294;11.816;2023-03-24T13:58:24;101092.00;;;26.20
68939;BMP180;59064;45.294;11.816;2023-03-24T14:06:09;101090.80;;;26.10
68939;BMP180;59064;45.294;11.816;2023-03-24T14:16:50;101075.80;;;26.50
68939;BMP180;59064;45.294;11.816;2023-03-24T14:19:24;101071.80;;;26.60
68939;BMP180;59064;45.294;11.816;2023-03-24T14:22:12;101074.00;;;26.80
68939;BMP180;59064;45.294;11.816;2023-03-24T14:24:40;101070.40;;;26.80
68939;BMP180;59064;45.294;11.816;2023-03-24T14:27:29;101065.60;;;27.00
68939;BMP180;59064;45.294;11.816;2023-03-24T14:29:59;101062.00;;;27.10
68939;BMP180;59064;45.294;11.816;2023-03-24T14:32:25;101068.60;;;27.16
68939;BMP180;59064;45.294;11.816;2023-03-24T14:34:55;101064.80;;;26.90
68939;BMP180;59064;45.294;11.816;2023-03-24T14:37:22;101057.20;;;27.16
68939;BMP180;59064;45.294;11.816;2023-03-24T14:39:49;101053.00;;;27.34
68939;BMP180;59064;45.294;11.816;2023-03-24T14:44:55;101047.00;;;27.50
68939;BMP180;59064;45.294;11.816;2023-03-24T14:47:26;101048.60;;;27.70
68939;BMP180;59064;45.294;11.816;2023-03-24T14:49:55;101049.40;;;27.90
68939;BMP180;59064;45.294;11.816;2023-03-24T14:52:48;101047.80;;;27.68
68939;BMP180;59064;45.294;11.816;2023-03-24T14:55:14;101045.40;;;27.40
68939;BMP180;59064;45.294;11.816;2023-03-24T14:57:54;101044.00;;;27.20
68939;BMP180;59064;45.294;11.816;2023-03-24T15:00:24;101046.60;;;27.40
68939;BMP180;59064;45.294;11.816;2023-03-24T15:02:59;101038.40;;;27.70
68939;BMP180;59064;45.294;11.816;2023-03-24T15:08:02;101034.80;;;27.08
68939;BMP180;59064;45.294;11.816;2023-03-24T15:15:52;101030.60;;;27.00
68939;BMP180;59064;45.294;11.816;2023-03-24T15:18:18;101027.40;;;27.32
68939;BMP180;59064;45.294;11.816;2023-03-24T15:20:47;101032.00;;;27.60
68939;BMP180;59064;45.294;11.816;2023-03-24T15:23:18;101032.00;;;27.50
68939;BMP180;59064;45.294;11.816;2023-03-24T15:25:44;101026.20;;;27.06
68939;BMP180;59064;45.294;11.816;2023-03-24T15:30:44;101028.60;;;27.30
68939;BMP180;59064;45.294;11.816;2023-03-24T15:33:10;101028.40;;;27.30
68939;BMP180;59064;45.294;11.816;2023-03-24T15:35:38;101032.60;;;27.10
68939;BMP180;59064;45.294;11.816;2023-03-24T15:38:04;101029.20;;;26.96
68939;BMP180;59064;45.294;11.816;2023-03-24T15:40:33;101032.00;;;26.86
68939;BMP180;59064;45.294;11.816;2023-03-24T15:43:02;101028.60;;;26.90
68939;BMP180;59064;45.294;11.816;2023-03-24T15:45:30;101028.80;;;26.72
68939;BMP180;59064;45.294;11.816;2023-03-24T15:47:57;101021.80;;;26.40
68939;BMP180;59064;45.294;11.816;2023-03-24T15:50:33;101017.40;;;26.20
68939;BMP180;59064;45.294;11.816;2023-03-24T15:53:22;101015.00;;;26.14
68939;BMP180;59064;45.294;11.816;2023-03-24T15:56:04;101014.60;;;26.00
68939;BMP180;59064;45.294;11.816;2023-03-24T15:58:31;101014.80;;;25.14
68939;BMP180;59064;45.294;11.816;2023-03-24T16:01:10;101017.20;;;24.70
68939;BMP180;59064;45.294;11.816;2023-03-24T16:03:41;101017.60;;;24.50
68939;BMP180;59064;45.294;11.816;2023-03-24T16:06:13;101015.00;;;24.50
68939;BMP180;59064;45.294;11.816;2023-03-24T16:08:41;101016.80;;;24.26
68939;BMP180;59064;45.294;11.816;2023-03-24T16:11:09;101016.00;;;23.70
68939;BMP180;59064;45.294;11.816;2023-03-24T16:13:37;101017.40;;;23.14
68939;BMP180;59064;45.294;11.816;2023-03-24T16:18:39;101020.00;;;22.10
68939;BMP180;59064;45.294;11.816;2023-03-24T16:23:43;101032.00;;;21.40
68939;BMP180;59064;45.294;11.816;2023-03-24T16:26:20;101039.40;;;21.10
68939;BMP180;59064;45.294;11.816;2023-03-24T16:28:47;101034.20;;;20.80
68939;BMP180;59064;45.294;11.816;2023-03-24T16:31:32;101032.20;;;20.52
68939;BMP180;59064;45.294;11.816;2023-03-24T16:34:00;101034.20;;;20.30
68939;BMP180;59064;45.294;11.816;2023-03-24T16:36:26;101031.00;;;20.20
68939;BMP180;59064;45.294;11.816;2023-03-24T16:38:53;101031.20;;;20.00
68939;BMP180;59064;45.294;11.816;2023-03-24T16:41:19;101038.20;;;19.90
68939;BMP180;59064;45.294;11.816;2023-03-24T16:43:46;101037.20;;;19.76
68939;BMP180;59064;45.294;11.816;2023-03-24T16:46:20;101034.20;;;19.60
68939;BMP180;59064;45.294;11.816;2023-03-24T16:48:46;101037.40;;;19.50
68939;BMP180;59064;45.294;11.816;2023-03-24T16:51:13;101039.40;;;19.30
68939;BMP180;59064;45.294;11.816;2023-03-24T16:53:40;101042.40;;;19.20
68939;BMP180;59064;45.294;11.816;2023-03-24T16:56:07;101045.60;;;19.10
68939;BMP180;59064;45.294;11.816;2023-03-24T16:58:33;101046.60;;;19.00
68939;BMP180;59064;45.294;11.816;2023-03-24T17:00:58;101047.80;;;18.92
68939;BMP180;59064;45.294;11.816;2023-03-24T17:03:26;101045.00;;;18.84
68939;BMP180;59064;45.294;11.816;2023-03-24T17:05:55;101043.60;;;18.76
68939;BMP180;59064;45.294;11.816;2023-03-24T17:08:22;101046.80;;;18.70
68939;BMP180;59064;45.294;11.816;2023-03-24T17:10:50;101045.20;;;18.60